sensor_id;sensor_type;location;lat;lon;timestamp;temperature;humidity
66722;SHT31;53633;49.932;10.884;2023-03-01T00:00:10;-1.47;80.28
66722;SHT31;53633;49.932;10.884;2023-03-01T00:02:37;-1.61;80.02
66722;SHT31;53633;49.932;10.884;2023-03-01T00:05:05;-1.89;80.79
66722;SHT31;53633;49.932;10.884;2023-03-01T00:07:31;-2.07;81.53
66722;SHT31;53633;49.932;10.884;2023-03-01T00:09:58;-2.22;82.13
66722;SHT31;53633;49.932;10.884;2023-03-01T00:12:26;-2.30;82.55
66722;SHT31;53633;49.932;10.884;2023-03-01T00:14:53;-2.34;82.98
66722;SHT31;53633;49.932;10.884;2023-03-01T00:17:20;-2.26;82.96
66722;SHT31;53633;49.932;10.884;2023-03-01T00:19:46;-2.41;82.36
66722;SHT31;53633;49.932;10.884;2023-03-01T00:22:13;-2.65;82.94
66722;SHT31;53633;49.932;10.884;2023-03-01T00:24:40;-2.81;84.45
66722;SHT31;53633;49.932;10.884;2023-03-01T00:27:07;-2.75;85.28
66722;SHT31;53633;49.932;10.884;2023-03-01T00:29:35;-2.57;84.58
66722;SHT31;53633;49.932;10.884;2023-03-01T00:32:01;-2.61;84.76
66722;SHT31;53633;49.932;10.884;2023-03-01T00:34:28;-2.54;85.36
66722;SHT31;53633;49.932;10.884;2023-03-01T00:36:55;-2.41;85.77
66722;SHT31;53633;49.932;10.884;2023-03-01T00:39:22;-2.16;85.17
66722;SHT31;53633;49.932;10.884;2023-03-01T00:41:48;-2.27;84.72
66722;SHT31;53633;49.932;10.884;2023-03-01T00:44:15;-2.06;84.38
66722;SHT31;53633;49.932;10.884;2023-03-01T00:46:43;-2.29;84.75
66722;SHT31;53633;49.932;10.884;2023-03-01T00:49:10;-2.16;84.77
66722;SHT31;53633;49.932;10.884;2023-03-01T00:51:37;-2.29;84.88
66722;SHT31;53633;49.932;10.884;2023-03-01T00:54:03;-2.44;85.10
66722;SHT31;53633;49.932;10.884;2023-03-01T00:56:30;-2.61;85.60
66722;SHT31;53633;49.932;10.884;2023-03-01T00:58:58;-2.57;85.90
66722;SHT31;53633;49.932;10.884;2023-03-01T01:01:26;-2.55;86.20
66722;SHT31;53633;49.932;10.884;2023-03-01T01:03:56;-2.45;85.95
66722;SHT31;53633;49.932;10.884;2023-03-01T01:06:25;-2.48;85.30
66722;SHT31;53633;49.932;10.884;2023-03-01T01:08:54;-2.57;86.19
66722;SHT31;53633;49.932;10.884;2023-03-01T01:11:21;-2.61;86.31
66722;SHT31;53633;49.932;10.884;2023-03-01T01:13:48;-2.60;86.16
66722;SHT31;53633;49.932;10.884;2023-03-01T01:16:17;-2.89;86.60
66722;SHT31;53633;49.932;10.884;2023-03-01T01:18:44;-2.93;87.36
66722;SHT31;53633;49.932;10.884;2023-03-01T01:21:15;-2.99;86.57
66722;SHT31;53633;49.932;10.884;2023-03-01T01:23:43;-2.88;87.56
66722;SHT31;53633;49.932;10.884;2023-03-01T01:26:12;-2.78;87.13
66722;SHT31;53633;49.932;10.884;2023-03-01T01:28:39;-2.60;86.57
66722;SHT31;53633;49.932;10.884;2023-03-01T01:31:06;-2.32;85.67
66722;SHT31;53633;49.932;10.884;2023-03-01T01:33:33;-2.48;85.89
66722;SHT31;53633;49.932;10.884;2023-03-01T01:36:00;-2.37;85.73
66722;SHT31;53633;49.932;10.884;2023-03-01T01:38:29;-2.34;85.46
66722;SHT31;53633;49.932;10.884;2023-03-01T01:40:56;-2.17;85.29
66722;SHT31;53633;49.932;10.884;2023-03-01T01:43:25;-2.23;84.86
66722;SHT31;53633;49.932;10.884;2023-03-01T01:45:55;-2.23;84.54
66722;SHT31;53633;49.932;10.884;2023-03-01T01:48:28;-2.14;84.58
66722;SHT31;53633;49.932;10.884;2023-03-01T01:50:58;-1.89;83.75
66722;SHT31;53633;49.932;10.884;2023-03-01T01:53:25;-1.78;83.09
66722;SHT31;53633;49.932;10.884;2023-03-01T01:55:58;-1.81;83.18
66722;SHT31;53633;49.932;10.884;2023-03-01T01:58:29;-1.78;83.18
66722;SHT31;53633;49.932;10.884;2023-03-01T02:00:56;-1.83;83.45
66722;SHT31;53633;49.932;10.884;2023-03-01T02:03:26;-1.72;83.22
66722;SHT31;53633;49.932;10.884;2023-03-01T02:05:57;-1.61;82.82
66722;SHT31;53633;49.932;10.884;2023-03-01T02:08:28;-1.61;82.54
66722;SHT31;53633;49.932;10.884;2023-03-01T02:10:58;-1.62;82.49
66722;SHT31;53633;49.932;10.884;2023-03-01T02:13:25;-1.68;82.51
66722;SHT31;53633;49.932;10.884;2023-03-01T02:15:53;-2.11;83.32
66722;SHT31;53633;49.932;10.884;2023-03-01T02:18:21;-2.75;86.45
66722;SHT31;53633;49.932;10.884;2023-03-01T02:20:56;-2.43;85.58
66722;SHT31;53633;49.932;10.884;2023-03-01T02:23:25;-2.09;84.44
66722;SHT31;53633;49.932;10.884;2023-03-01T02:25:57;-2.16;84.41
66722;SHT31;53633;49.932;10.884;2023-03-01T02:28:30;-2.22;84.68
66722;SHT31;53633;49.932;10.884;2023-03-01T02:30:56;-2.16;84.22
66722;SHT31;53633;49.932;10.884;2023-03-01T02:33:25;-2.27;84.32
66722;SHT31;53633;49.932;10.884;2023-03-01T02:35:54;-2.30;84.49
66722;SHT31;53633;49.932;10.884;2023-03-01T02:38:22;-2.16;84.11
66722;SHT31;53633;49.932;10.884;2023-03-01T02:40:49;-2.36;84.35
66722;SHT31;53633;49.932;10.884;2023-03-01T02:43:18;-2.55;84.66
66722;SHT31;53633;49.932;10.884;2023-03-01T02:45:53;-2.51;85.00
66722;SHT31;53633;49.932;10.884;2023-03-01T02:48:23;-2.62;85.35
66722;SHT31;53633;49.932;10.884;2023-03-01T02:51:03;-2.82;86.40
66722;SHT31;53633;49.932;10.884;2023-03-01T02:53:37;-2.81;86.55
66722;SHT31;53633;49.932;10.884;2023-03-01T02:56:05;-2.74;86.62
66722;SHT31;53633;49.932;10.884;2023-03-01T02:58:32;-2.76;86.47
66722;SHT31;53633;49.932;10.884;2023-03-01T03:01:00;-2.68;86.12
66722;SHT31;53633;49.932;10.884;2023-03-01T03:03:27;-2.55;85.82
66722;SHT31;53633;49.932;10.884;2023-03-01T03:05:54;-2.58;85.98
66722;SHT31;53633;49.932;10.884;2023-03-01T03:08:20;-2.58;86.25
66722;SHT31;53633;49.932;10.884;2023-03-01T03:10:47;-2.58;86.07
66722;SHT31;53633;49.932;10.884;2023-03-01T03:13:15;-2.22;84.95
66722;SHT31;53633;49.932;10.884;2023-03-01T03:15:42;-2.03;84.20
66722;SHT31;53633;49.932;10.884;2023-03-01T03:18:13;-1.96;83.86
66722;SHT31;53633;49.932;10.884;2023-03-01T03:20:41;-2.06;83.95
66722;SHT31;53633;49.932;10.884;2023-03-01T03:23:08;-2.11;83.94
66722;SHT31;53633;49.932;10.884;2023-03-01T03:25:35;-2.33;84.17
66722;SHT31;53633;49.932;10.884;2023-03-01T03:28:02;-2.50;85.19
66722;SHT31;53633;49.932;10.884;2023-03-01T03:30:31;-2.72;85.45
66722;SHT31;53633;49.932;10.884;2023-03-01T03:32:58;-2.76;86.10
66722;SHT31;53633;49.932;10.884;2023-03-01T03:35:29;-2.81;86.05
66722;SHT31;53633;49.932;10.884;2023-03-01T03:37:58;-2.85;86.03
66722;SHT31;53633;49.932;10.884;2023-03-01T03:40:25;-2.85;86.27
66722;SHT31;53633;49.932;10.884;2023-03-01T03:42:51;-2.96;85.90
66722;SHT31;53633;49.932;10.884;2023-03-01T03:45:18;-2.93;86.60
66722;SHT31;53633;49.932;10.884;2023-03-01T03:47:45;-2.92;86.62
66722;SHT31;53633;49.932;10.884;2023-03-01T03:50:15;-2.86;86.43
66722;SHT31;53633;49.932;10.884;2023-03-01T03:52:43;-2.93;87.27
66722;SHT31;53633;49.932;10.884;2023-03-01T03:55:12;-2.74;86.69
66722;SHT31;53633;49.932;10.884;2023-03-01T03:57:40;-2.83;86.97
66722;SHT31;53633;49.932;10.884;2023-03-01T04:00:09;-2.83;86.96
66722;SHT31;53633;49.932;10.884;2023-03-01T04:02:37;-2.86;86.85
66722;SHT31;53633;49.932;10.884;2023-03-01T04:05:04;-2.69;86.69
66722;SHT31;53633;49.932;10.884;2023-03-01T04:07:31;-2.53;85.89
66722;SHT31;53633;49.932;10.884;2023-03-01T04:09:59;-2.41;85.49
66722;SHT31;53633;49.932;10.884;2023-03-01T04:12:26;-2.43;85.38
66722;SHT31;53633;49.932;10.884;2023-03-01T04:14:52;-2.50;84.96
66722;SHT31;53633;49.932;10.884;2023-03-01T04:17:19;-2.60;85.39
66722;SHT31;53633;49.932;10.884;2023-03-01T04:19:46;-2.61;85.40
66722;SHT31;53633;49.932;10.884;2023-03-01T04:22:13;-2.79;85.16
66722;SHT31;53633;49.932;10.884;2023-03-01T04:24:39;-2.69;85.67
66722;SHT31;53633;49.932;10.884;2023-03-01T04:27:08;-2.47;85.16
66722;SHT31;53633;49.932;10.884;2023-03-01T04:29:34;-2.30;84.34
66722;SHT31;53633;49.932;10.884;2023-03-01T04:32:01;-2.17;83.76
66722;SHT31;53633;49.932;10.884;2023-03-01T04:34:28;-2.09;83.29
66722;SHT31;53633;49.932;10.884;2023-03-01T04:36:55;-1.98;82.64
66722;SHT31;53633;49.932;10.884;2023-03-01T04:39:21;-1.93;82.20
66722;SHT31;53633;49.932;10.884;2023-03-01T04:41:48;-1.88;81.97
66722;SHT31;53633;49.932;10.884;2023-03-01T04:44:16;-1.93;82.20
66722;SHT31;53633;49.932;10.884;2023-03-01T04:46:43;-1.96;81.99
66722;SHT31;53633;49.932;10.884;2023-03-01T04:49:10;-2.03;82.23
66722;SHT31;53633;49.932;10.884;2023-03-01T04:51:36;-1.93;82.19
66722;SHT31;53633;49.932;10.884;2023-03-01T04:54:03;-1.89;81.92
66722;SHT31;53633;49.932;10.884;2023-03-01T04:56:30;-1.93;81.95
66722;SHT31;53633;49.932;10.884;2023-03-01T04:58:57;-1.99;81.94
66722;SHT31;53633;49.932;10.884;2023-03-01T05:01:25;-2.02;82.09
66722;SHT31;53633;49.932;10.884;2023-03-01T05:03:52;-2.07;82.32
66722;SHT31;53633;49.932;10.884;2023-03-01T05:06:20;-2.19;82.64
66722;SHT31;53633;49.932;10.884;2023-03-01T05:08:47;-2.25;82.92
66722;SHT31;53633;49.932;10.884;2023-03-01T05:11:13;-2.23;82.77
66722;SHT31;53633;49.932;10.884;2023-03-01T05:13:41;-2.23;83.02
66722;SHT31;53633;49.932;10.884;2023-03-01T05:16:08;-2.30;83.32
66722;SHT31;53633;49.932;10.884;2023-03-01T05:18:37;-2.41;83.52
66722;SHT31;53633;49.932;10.884;2023-03-01T05:21:06;-2.58;83.71
66722;SHT31;53633;49.932;10.884;2023-03-01T05:23:33;-2.58;84.19
66722;SHT31;53633;49.932;10.884;2023-03-01T05:26:01;-2.55;84.10
66722;SHT31;53633;49.932;10.884;2023-03-01T05:28:28;-2.51;83.81
66722;SHT31;53633;49.932;10.884;2023-03-01T05:30:55;-2.61;84.29
66722;SHT31;53633;49.932;10.884;2023-03-01T05:33:23;-2.60;84.26
66722;SHT31;53633;49.932;10.884;2023-03-01T05:35:52;-2.64;84.49
66722;SHT31;53633;49.932;10.884;2023-03-01T05:38:19;-2.61;84.35
66722;SHT31;53633;49.932;10.884;2023-03-01T05:40:47;-2.44;84.03
66722;SHT31;53633;49.932;10.884;2023-03-01T05:43:16;-2.34;83.47
66722;SHT31;53633;49.932;10.884;2023-03-01T05:45:43;-2.50;83.79
66722;SHT31;53633;49.932;10.884;2023-03-01T05:48:11;-2.30;82.88
66722;SHT31;53633;49.932;10.884;2023-03-01T05:50:40;-2.53;83.52
66722;SHT31;53633;49.932;10.884;2023-03-01T05:53:10;-2.60;83.90
66722;SHT31;53633;49.932;10.884;2023-03-01T05:55:37;-2.65;84.05
66722;SHT31;53633;49.932;10.884;2023-03-01T05:58:06;-2.57;83.50
66722;SHT31;53633;49.932;10.884;2023-03-01T06:00:33;-2.65;84.05
66722;SHT31;53633;49.932;10.884;2023-03-01T06:03:00;-2.81;84.42
66722;SHT31;53633;49.932;10.884;2023-03-01T06:05:27;-2.74;84.77
66722;SHT31;53633;49.932;10.884;2023-03-01T06:07:55;-2.71;84.47
66722;SHT31;53633;49.932;10.884;2023-03-01T06:10:26;-2.79;84.47
66722;SHT31;53633;49.932;10.884;2023-03-01T06:12:53;-2.65;84.24
66722;SHT31;53633;49.932;10.884;2023-03-01T06:15:20;-2.82;84.43
66722;SHT31;53633;49.932;10.884;2023-03-01T06:17:47;-2.86;84.82
66722;SHT31;53633;49.932;10.884;2023-03-01T06:20:15;-2.95;85.09
66722;SHT31;53633;49.932;10.884;2023-03-01T06:22:45;-2.85;85.34
66722;SHT31;53633;49.932;10.884;2023-03-01T06:25:14;-2.68;84.97
66722;SHT31;53633;49.932;10.884;2023-03-01T06:27:43;-2.60;84.21
66722;SHT31;53633;49.932;10.884;2023-03-01T06:30:11;-2.51;84.03
66722;SHT31;53633;49.932;10.884;2023-03-01T06:32:38;-2.54;84.18
66722;SHT31;53633;49.932;10.884;2023-03-01T06:35:05;-2.55;84.13
66722;SHT31;53633;49.932;10.884;2023-03-01T06:37:32;-2.38;83.98
66722;SHT31;53633;49.932;10.884;2023-03-01T06:39:59;-2.40;84.04
66722;SHT31;53633;49.932;10.884;2023-03-01T06:42:25;-2.26;83.93
66722;SHT31;53633;49.932;10.884;2023-03-01T06:44:54;-2.22;83.50
66722;SHT31;53633;49.932;10.884;2023-03-01T06:47:20;-2.14;83.68
66722;SHT31;53633;49.932;10.884;2023-03-01T06:49:47;-1.99;83.15
66722;SHT31;53633;49.932;10.884;2023-03-01T06:52:14;-1.88;82.83
66722;SHT31;53633;49.932;10.884;2023-03-01T06:54:40;-1.71;82.28
66722;SHT31;53633;49.932;10.884;2023-03-01T06:57:07;-1.58;81.82
66722;SHT31;53633;49.932;10.884;2023-03-01T06:59:34;-1.39;81.35
66722;SHT31;53633;49.932;10.884;2023-03-01T07:02:02;-1.07;80.58
66722;SHT31;53633;49.932;10.884;2023-03-01T07:04:29;0.01;77.97
66722;SHT31;53633;49.932;10.884;2023-03-01T07:06:55;1.60;72.60
66722;SHT31;53633;49.932;10.884;2023-03-01T07:09:22;2.65;68.59
66722;SHT31;53633;49.932;10.884;2023-03-01T07:11:50;2.84;66.87
66722;SHT31;53633;49.932;10.884;2023-03-01T07:14:17;3.48;64.95
66722;SHT31;53633;49.932;10.884;2023-03-01T07:16:43;4.44;62.50
66722;SHT31;53633;49.932;10.884;2023-03-01T07:19:11;5.20;59.15
66722;SHT31;53633;49.932;10.884;2023-03-01T07:21:38;5.79;57.21
66722;SHT31;53633;49.932;10.884;2023-03-01T07:24:06;6.25;55.40
66722;SHT31;53633;49.932;10.884;2023-03-01T07:26:33;6.99;53.22
66722;SHT31;53633;49.932;10.884;2023-03-01T07:29:01;7.41;52.02
66722;SHT31;53633;49.932;10.884;2023-03-01T07:31:27;7.40;51.92
66722;SHT31;53633;49.932;10.884;2023-03-01T07:33:54;7.31;51.22
66722;SHT31;53633;49.932;10.884;2023-03-01T07:36:24;7.20;51.86
66722;SHT31;53633;49.932;10.884;2023-03-01T07:38:51;7.93;51.02
66722;SHT31;53633;49.932;10.884;2023-03-01T07:41:18;8.92;49.18
66722;SHT31;53633;49.932;10.884;2023-03-01T07:43:45;8.99;47.36
66722;SHT31;53633;49.932;10.884;2023-03-01T07:46:11;9.61;46.50
66722;SHT31;53633;49.932;10.884;2023-03-01T07:48:38;9.75;45.84
66722;SHT31;53633;49.932;10.884;2023-03-01T07:51:06;9.93;45.35
66722;SHT31;53633;49.932;10.884;2023-03-01T07:53:34;9.91;45.26
66722;SHT31;53633;49.932;10.884;2023-03-01T07:56:02;10.34;44.52
66722;SHT31;53633;49.932;10.884;2023-03-01T07:58:29;10.64;43.94
66722;SHT31;53633;49.932;10.884;2023-03-01T08:01:00;10.43;43.57
66722;SHT31;53633;49.932;10.884;2023-03-01T08:03:27;10.48;43.78
66722;SHT31;53633;49.932;10.884;2023-03-01T08:05:54;9.86;44.91
66722;SHT31;53633;49.932;10.884;2023-03-01T08:08:21;10.41;44.80
66722;SHT31;53633;49.932;10.884;2023-03-01T08:10:49;10.74;43.29
66722;SHT31;53633;49.932;10.884;2023-03-01T08:13:16;11.19;42.02
66722;SHT31;53633;49.932;10.884;2023-03-01T08:15:42;11.26;42.45
66722;SHT31;53633;49.932;10.884;2023-03-01T08:18:09;11.59;40.95
66722;SHT31;53633;49.932;10.884;2023-03-01T08:20:36;12.18;39.76
66722;SHT31;53633;49.932;10.884;2023-03-01T08:23:02;11.64;40.87
66722;SHT31;53633;49.932;10.884;2023-03-01T08:25:29;12.09;39.34
66722;SHT31;53633;49.932;10.884;2023-03-01T08:27:57;12.39;38.96
66722;SHT31;53633;49.932;10.884;2023-03-01T08:30:24;11.95;39.60
66722;SHT31;53633;49.932;10.884;2023-03-01T08:32:51;12.12;39.75
66722;SHT31;53633;49.932;10.884;2023-03-01T08:35:19;12.40;39.36
66722;SHT31;53633;49.932;10.884;2023-03-01T08:37:46;12.26;39.05
66722;SHT31;53633;49.932;10.884;2023-03-01T08:40:13;12.76;38.92
66722;SHT31;53633;49.932;10.884;2023-03-01T08:42:40;12.97;38.24
66722;SHT31;53633;49.932;10.884;2023-03-01T08:45:10;12.53;39.00
66722;SHT31;53633;49.932;10.884;2023-03-01T08:47:37;12.79;37.95
66722;SHT31;53633;49.932;10.884;2023-03-01T08:50:04;12.56;38.23
66722;SHT31;53633;49.932;10.884;2023-03-01T08:52:32;12.64;38.41
66722;SHT31;53633;49.932;10.884;2023-03-01T08:54:59;11.74;40.37
66722;SHT31;53633;49.932;10.884;2023-03-01T08:57:25;12.08;40.34
66722;SHT31;53633;49.932;10.884;2023-03-01T08:59:52;11.73;40.75
66722;SHT31;53633;49.932;10.884;2023-03-01T09:02:20;11.57;40.88
66722;SHT31;53633;49.932;10.884;2023-03-01T09:04:47;12.05;40.45
66722;SHT31;53633;49.932;10.884;2023-03-01T09:07:14;11.97;40.50
66722;SHT31;53633;49.932;10.884;2023-03-01T09:09:41;11.36;41.74
66722;SHT31;53633;49.932;10.884;2023-03-01T09:12:08;10.86;42.04
66722;SHT31;53633;49.932;10.884;2023-03-01T09:14:34;10.75;42.55
66722;SHT31;53633;49.932;10.884;2023-03-01T09:17:01;9.86;43.51
66722;SHT31;53633;49.932;10.884;2023-03-01T09:19:29;9.05;46.32
66722;SHT31;53633;49.932;10.884;2023-03-01T09:21:56;8.64;46.59
66722;SHT31;53633;49.932;10.884;2023-03-01T09:24:23;8.13;47.97
66722;SHT31;53633;49.932;10.884;2023-03-01T09:26:53;8.34;47.92
66722;SHT31;53633;49.932;10.884;2023-03-01T09:29:19;8.33;47.76
66722;SHT31;53633;49.932;10.884;2023-03-01T09:31:46;8.30;48.56
66722;SHT31;53633;49.932;10.884;2023-03-01T09:34:13;8.22;47.33
66722;SHT31;53633;49.932;10.884;2023-03-01T09:36:41;8.09;48.57
66722;SHT31;53633;49.932;10.884;2023-03-01T09:39:08;8.03;49.14
66722;SHT31;53633;49.932;10.884;2023-03-01T09:41:48;7.28;47.69
66722;SHT31;53633;49.932;10.884;2023-03-01T09:44:27;7.24;48.19
66722;SHT31;53633;49.932;10.884;2023-03-01T09:46:55;6.07;49.33
66722;SHT31;53633;49.932;10.884;2023-03-01T09:49:24;6.61;50.02
66722;SHT31;53633;49.932;10.884;2023-03-01T09:51:59;7.03;49.83
66722;SHT31;53633;49.932;10.884;2023-03-01T09:54:27;7.17;48.75
66722;SHT31;53633;49.932;10.884;2023-03-01T09:57:02;6.59;50.22
66722;SHT31;53633;49.932;10.884;2023-03-01T09:59:36;6.52;50.82
66722;SHT31;53633;49.932;10.884;2023-03-01T10:02:21;6.64;49.66
66722;SHT31;53633;49.932;10.884;2023-03-01T10:04:51;5.54;51.06
66722;SHT31;53633;49.932;10.884;2023-03-01T10:07:30;5.78;51.23
66722;SHT31;53633;49.932;10.884;2023-03-01T10:09:59;6.33;50.21
66722;SHT31;53633;49.932;10.884;2023-03-01T10:12:30;6.00;50.63
66722;SHT31;53633;49.932;10.884;2023-03-01T10:15:04;6.09;51.58
66722;SHT31;53633;49.932;10.884;2023-03-01T10:17:35;5.92;50.64
66722;SHT31;53633;49.932;10.884;2023-03-01T10:20:15;5.87;51.42
66722;SHT31;53633;49.932;10.884;2023-03-01T10:22:44;5.66;51.60
66722;SHT31;53633;49.932;10.884;2023-03-01T10:25:13;5.68;51.54
66722;SHT31;53633;49.932;10.884;2023-03-01T10:27:46;5.59;51.95
66722;SHT31;53633;49.932;10.884;2023-03-01T10:30:17;5.87;52.73
66722;SHT31;53633;49.932;10.884;2023-03-01T10:32:46;5.65;52.17
66722;SHT31;53633;49.932;10.884;2023-03-01T10:35:18;5.63;51.78
66722;SHT31;53633;49.932;10.884;2023-03-01T10:38:03;5.34;51.87
66722;SHT31;53633;49.932;10.884;2023-03-01T10:40:30;5.52;52.24
66722;SHT31;53633;49.932;10.884;2023-03-01T10:42:58;5.54;52.96
66722;SHT31;53633;49.932;10.884;2023-03-01T10:45:34;5.59;53.88
66722;SHT31;53633;49.932;10.884;2023-03-01T10:48:13;5.26;53.51
66722;SHT31;53633;49.932;10.884;2023-03-01T10:50:40;5.37;54.47
66722;SHT31;53633;49.932;10.884;2023-03-01T10:53:22;5.49;54.17
66722;SHT31;53633;49.932;10.884;2023-03-01T10:55:57;5.58;53.59
66722;SHT31;53633;49.932;10.884;2023-03-01T10:58:25;5.55;53.79
66722;SHT31;53633;49.932;10.884;2023-03-01T11:00:53;5.63;53.62
66722;SHT31;53633;49.932;10.884;2023-03-01T11:03:22;5.62;53.85
66722;SHT31;53633;49.932;10.884;2023-03-01T11:05:55;5.62;54.01
66722;SHT31;53633;49.932;10.884;2023-03-01T11:08:36;5.55;53.62
66722;SHT31;53633;49.932;10.884;2023-03-01T11:11:17;5.51;53.79
66722;SHT31;53633;49.932;10.884;2023-03-01T11:13:51;5.26;53.70
66722;SHT31;53633;49.932;10.884;2023-03-01T11:16:25;5.21;54.74
66722;SHT31;53633;49.932;10.884;2023-03-01T11:19:03;5.38;54.96
66722;SHT31;53633;49.932;10.884;2023-03-01T11:21:33;5.47;54.99
66722;SHT31;53633;49.932;10.884;2023-03-01T11:24:04;5.42;55.23
66722;SHT31;53633;49.932;10.884;2023-03-01T11:26:38;5.41;55.20
66722;SHT31;53633;49.932;10.884;2023-03-01T11:29:12;5.48;54.36
66722;SHT31;53633;49.932;10.884;2023-03-01T11:31:43;5.55;54.52
66722;SHT31;53633;49.932;10.884;2023-03-01T11:34:29;5.49;53.62
66722;SHT31;53633;49.932;10.884;2023-03-01T11:37:01;5.54;54.56
66722;SHT31;53633;49.932;10.884;2023-03-01T11:39:36;5.66;54.88
66722;SHT31;53633;49.932;10.884;2023-03-01T11:42:09;5.69;54.29
66722;SHT31;53633;49.932;10.884;2023-03-01T11:44:46;5.79;54.81
66722;SHT31;53633;49.932;10.884;2023-03-01T11:47:27;5.93;54.39
66722;SHT31;53633;49.932;10.884;2023-03-01T11:50:18;5.80;53.75
66722;SHT31;53633;49.932;10.884;2023-03-01T11:52:59;6.02;54.47
66722;SHT31;53633;49.932;10.884;2023-03-01T11:55:47;5.99;53.12
66722;SHT31;53633;49.932;10.884;2023-03-01T11:58:29;5.93;53.41
66722;SHT31;53633;49.932;10.884;2023-03-01T12:01:09;5.89;53.78
66722;SHT31;53633;49.932;10.884;2023-03-01T12:03:57;5.90;53.64
66722;SHT31;53633;49.932;10.884;2023-03-01T12:06:36;5.69;53.25
66722;SHT31;53633;49.932;10.884;2023-03-01T12:09:23;5.97;55.11
66722;SHT31;53633;49.932;10.884;2023-03-01T12:12:17;6.18;54.20
66722;SHT31;53633;49.932;10.884;2023-03-01T12:14:59;6.21;53.85
66722;SHT31;53633;49.932;10.884;2023-03-01T12:17:43;6.28;53.98
66722;SHT31;53633;49.932;10.884;2023-03-01T12:20:20;6.38;54.41
66722;SHT31;53633;49.932;10.884;2023-03-01T12:23:02;6.28;53.23
66722;SHT31;53633;49.932;10.884;2023-03-01T12:25:48;6.20;53.18
66722;SHT31;53633;49.932;10.884;2023-03-01T12:28:26;6.07;52.50
66722;SHT31;53633;49.932;10.884;2023-03-01T12:31:11;6.13;52.94
66722;SHT31;53633;49.932;10.884;2023-03-01T12:33:51;6.24;53.15
66722;SHT31;53633;49.932;10.884;2023-03-01T12:36:38;6.31;53.51
66722;SHT31;53633;49.932;10.884;2023-03-01T12:39:17;6.45;53.41
66722;SHT31;53633;49.932;10.884;2023-03-01T12:41:58;6.42;53.79
66722;SHT31;53633;49.932;10.884;2023-03-01T12:44:44;6.33;52.94
66722;SHT31;53633;49.932;10.884;2023-03-01T12:47:23;6.37;53.89
66722;SHT31;53633;49.932;10.884;2023-03-01T12:49:55;6.44;53.48
66722;SHT31;53633;49.932;10.884;2023-03-01T12:52:32;6.54;53.54
66722;SHT31;53633;49.932;10.884;2023-03-01T12:55:01;6.51;52.88
66722;SHT31;53633;49.932;10.884;2023-03-01T12:57:31;6.65;53.85
66722;SHT31;53633;49.932;10.884;2023-03-01T13:00:09;6.65;53.43
66722;SHT31;53633;49.932;10.884;2023-03-01T13:02:46;6.58;52.84
66722;SHT31;53633;49.932;10.884;2023-03-01T13:05:24;6.59;53.17
66722;SHT31;53633;49.932;10.884;2023-03-01T13:07:58;6.59;53.84
66722;SHT31;53633;49.932;10.884;2023-03-01T13:10:33;6.55;53.15
66722;SHT31;53633;49.932;10.884;2023-03-01T13:13:11;6.59;52.92
66722;SHT31;53633;49.932;10.884;2023-03-01T13:15:40;6.71;54.14
66722;SHT31;53633;49.932;10.884;2023-03-01T13:18:29;6.73;53.02
66722;SHT31;53633;49.932;10.884;2023-03-01T13:20:57;6.72;52.50
66722;SHT31;53633;49.932;10.884;2023-03-01T13:23:26;6.73;53.16
66722;SHT31;53633;49.932;10.884;2023-03-01T13:26:08;6.79;53.62
66722;SHT31;53633;49.932;10.884;2023-03-01T13:34:48;6.81;52.74
66722;SHT31;53633;49.932;10.884;2023-03-01T13:37:24;6.95;52.26
66722;SHT31;53633;49.932;10.884;2023-03-01T13:39:52;7.03;52.69
66722;SHT31;53633;49.932;10.884;2023-03-01T13:45:36;6.97;52.67
66722;SHT31;53633;49.932;10.884;2023-03-01T13:48:09;7.16;51.59
66722;SHT31;53633;49.932;10.884;2023-03-01T13:50:46;7.17;51.57
66722;SHT31;53633;49.932;10.884;2023-03-01T13:53:16;7.19;52.09
66722;SHT31;53633;49.932;10.884;2023-03-01T13:55:45;7.13;51.83
66722;SHT31;53633;49.932;10.884;2023-03-01T13:58:19;7.11;51.90
66722;SHT31;53633;49.932;10.884;2023-03-01T14:00:47;7.13;52.23
66722;SHT31;53633;49.932;10.884;2023-03-01T14:03:21;7.20;52.38
66722;SHT31;53633;49.932;10.884;2023-03-01T14:06:00;7.13;51.83
66722;SHT31;53633;49.932;10.884;2023-03-01T14:08:40;7.23;53.05
66722;SHT31;53633;49.932;10.884;2023-03-01T14:11:34;7.24;52.37
66722;SHT31;53633;49.932;10.884;2023-03-01T14:14:18;7.27;53.02
66722;SHT31;53633;49.932;10.884;2023-03-01T14:16:55;7.19;52.94
66722;SHT31;53633;49.932;10.884;2023-03-01T14:19:24;7.21;53.02
66722;SHT31;53633;49.932;10.884;2023-03-01T14:22:04;7.17;52.38
66722;SHT31;53633;49.932;10.884;2023-03-01T14:24:34;7.17;51.98
66722;SHT31;53633;49.932;10.884;2023-03-01T14:27:02;7.17;52.80
66722;SHT31;53633;49.932;10.884;2023-03-01T14:29:34;7.16;52.38
66722;SHT31;53633;49.932;10.884;2023-03-01T14:32:12;7.17;52.14
66722;SHT31;53633;49.932;10.884;2023-03-01T14:34:44;7.17;52.60
66722;SHT31;53633;49.932;10.884;2023-03-01T14:37:19;7.20;52.06
66722;SHT31;53633;49.932;10.884;2023-03-01T14:39:46;7.17;52.98
66722;SHT31;53633;49.932;10.884;2023-03-01T14:42:13;7.19;52.09
66722;SHT31;53633;49.932;10.884;2023-03-01T14:44:42;7.20;53.49
66722;SHT31;53633;49.932;10.884;2023-03-01T14:47:12;7.23;53.46
66722;SHT31;53633;49.932;10.884;2023-03-01T14:49:39;7.20;53.16
66722;SHT31;53633;49.932;10.884;2023-03-01T14:52:07;7.27;53.50
66722;SHT31;53633;49.932;10.884;2023-03-01T14:54:46;7.24;52.52
66722;SHT31;53633;49.932;10.884;2023-03-01T14:57:15;7.24;52.70
66722;SHT31;53633;49.932;10.884;2023-03-01T14:59:43;7.14;52.33
66722;SHT31;53633;49.932;10.884;2023-03-01T15:02:13;7.14;53.13
66722;SHT31;53633;49.932;10.884;2023-03-01T15:04:42;7.19;53.34
66722;SHT31;53633;49.932;10.884;2023-03-01T15:07:12;7.11;52.70
66722;SHT31;53633;49.932;10.884;2023-03-01T15:09:41;7.20;52.96
66722;SHT31;53633;49.932;10.884;2023-03-01T15:12:34;7.14;52.38
66722;SHT31;53633;49.932;10.884;2023-03-01T15:15:08;7.14;53.09
66722;SHT31;53633;49.932;10.884;2023-03-01T15:17:51;7.10;53.52
66722;SHT31;53633;49.932;10.884;2023-03-01T15:20:19;7.14;53.37
66722;SHT31;53633;49.932;10.884;2023-03-01T15:22:46;7.06;53.07
66722;SHT31;53633;49.932;10.884;2023-03-01T15:25:15;7.09;53.62
66722;SHT31;53633;49.932;10.884;2023-03-01T15:27:46;7.06;53.71
66722;SHT31;53633;49.932;10.884;2023-03-01T15:30:17;6.96;54.02
66722;SHT31;53633;49.932;10.884;2023-03-01T15:32:44;6.89;53.30
66722;SHT31;53633;49.932;10.884;2023-03-01T15:35:37;6.88;53.47
66722;SHT31;53633;49.932;10.884;2023-03-01T15:38:24;6.89;53.55
66722;SHT31;53633;49.932;10.884;2023-03-01T15:40:52;6.86;54.47
66722;SHT31;53633;49.932;10.884;2023-03-01T15:43:39;6.79;54.66
66722;SHT31;53633;49.932;10.884;2023-03-01T15:46:22;6.76;54.61
66722;SHT31;53633;49.932;10.884;2023-03-01T15:48:52;6.71;54.72
66722;SHT31;53633;49.932;10.884;2023-03-01T15:51:22;6.56;55.00